sensor_id;sensor_type;location;lat;lon;timestamp;P1;durP1;ratioP1;P2;durP2;ratioP2
9138;SDS011;4604;48.616;9.548;2023-05-07T00:00:22;3.78;;;2.22;;
9138;SDS011;4604;48.616;9.548;2023-05-07T00:02:49;3.15;;;2.40;;
9138;SDS011;4604;48.616;9.548;2023-05-07T00:05:16;2.47;;;2.28;;
9138;SDS011;4604;48.616;9.548;2023-05-07T00:07:42;2.97;;;2.25;;
9138;SDS011;4604;48.616;9.548;2023-05-07T00:10:09;4.18;;;2.30;;
9138;SDS011;4604;48.616;9.548;2023-05-07T00:12:40;3.08;;;2.38;;
9138;SDS011;4604;48.616;9.548;2023-05-07T00:15:07;2.22;;;2.00;;
9138;SDS011;4604;48.616;9.548;2023-05-07T00:17:34;4.95;;;2.20;;
9138;SDS011;4604;48.616;9.548;2023-05-07T00:20:06;3.80;;;2.70;;
9138;SDS011;4604;48.616;9.548;2023-05-07T00:22:34;3.25;;;2.42;;
9138;SDS011;4604;48.616;9.548;2023-05-07T00:25:01;4.78;;;2.70;;
9138;SDS011;4604;48.616;9.548;2023-05-07T00:27:27;5.28;;;2.72;;
9138;SDS011;4604;48.616;9.548;2023-05-07T00:29:56;3.55;;;2.85;;
9138;SDS011;4604;48.616;9.548;2023-05-07T00:32:22;4.18;;;2.70;;
9138;SDS011;4604;48.616;9.548;2023-05-07T00:34:49;2.60;;;2.25;;
9138;SDS011;4604;48.616;9.548;2023-05-07T00:37:16;2.97;;;2.70;;
9138;SDS011;4604;48.616;9.548;2023-05-07T00:39:42;2.78;;;2.25;;
9138;SDS011;4604;48.616;9.548;2023-05-07T00:42:09;4.53;;;3.00;;
9138;SDS011;4604;48.616;9.548;2023-05-07T00:44:36;6.32;;;2.67;;
9138;SDS011;4604;48.616;9.548;2023-05-07T00:47:04;4.45;;;3.13;;
9138;SDS011;4604;48.616;9.548;2023-05-07T00:49:35;2.78;;;2.58;;
9138;SDS011;4604;48.616;9.548;2023-05-07T00:52:05;3.88;;;2.90;;
9138;SDS011;4604;48.616;9.548;2023-05-07T00:54:32;5.43;;;2.85;;
9138;SDS011;4604;48.616;9.548;2023-05-07T00:57:01;3.25;;;2.40;;
9138;SDS011;4604;48.616;9.548;2023-05-07T00:59:28;2.95;;;2.70;;
9138;SDS011;4604;48.616;9.548;2023-05-07T01:01:55;5.15;;;2.47;;
9138;SDS011;4604;48.616;9.548;2023-05-07T01:04:23;3.78;;;2.20;;
9138;SDS011;4604;48.616;9.548;2023-05-07T01:06:49;4.30;;;2.65;;
9138;SDS011;4604;48.616;9.548;2023-05-07T01:09:16;3.03;;;2.50;;
9138;SDS011;4604;48.616;9.548;2023-05-07T01:11:48;3.10;;;2.25;;
9138;SDS011;4604;48.616;9.548;2023-05-07T01:14:16;2.92;;;2.20;;
9138;SDS011;4604;48.616;9.548;2023-05-07T01:16:44;3.00;;;2.33;;
9138;SDS011;4604;48.616;9.548;2023-05-07T01:19:11;4.30;;;2.40;;
9138;SDS011;4604;48.616;9.548;2023-05-07T01:21:42;2.40;;;2.20;;
9138;SDS011;4604;48.616;9.548;2023-05-07T01:24:13;3.28;;;2.60;;
9138;SDS011;4604;48.616;9.548;2023-05-07T01:26:42;5.18;;;2.47;;
9138;SDS011;4604;48.616;9.548;2023-05-07T01:29:10;2.63;;;2.42;;
9138;SDS011;4604;48.616;9.548;2023-05-07T01:31:37;3.55;;;2.58;;
9138;SDS011;4604;48.616;9.548;2023-05-07T01:34:06;3.33;;;2.70;;
9138;SDS011;4604;48.616;9.548;2023-05-07T01:36:37;3.03;;;2.58;;
9138;SDS011;4604;48.616;9.548;2023-05-07T01:39:06;3.85;;;2.50;;
9138;SDS011;4604;48.616;9.548;2023-05-07T01:41:34;2.85;;;2.60;;
9138;SDS011;4604;48.616;9.548;2023-05-07T01:44:01;4.55;;;2.70;;
9138;SDS011;4604;48.616;9.548;2023-05-07T01:46:29;10.48;;;2.40;;
9138;SDS011;4604;48.616;9.548;2023-05-07T01:48:57;3.10;;;2.55;;
9138;SDS011;4604;48.616;9.548;2023-05-07T01:51:24;3.08;;;2.70;;
9138;SDS011;4604;48.616;9.548;2023-05-07T01:53:52;3.00;;;2.70;;
9138;SDS011;4604;48.616;9.548;2023-05-07T01:56:19;4.25;;;2.65;;
9138;SDS011;4604;48.616;9.548;2023-05-07T01:58:47;5.15;;;2.60;;
9138;SDS011;4604;48.616;9.548;2023-05-07T02:01:16;5.43;;;2.58;;
9138;SDS011;4604;48.616;9.548;2023-05-07T02:03:42;4.05;;;2.72;;
9138;SDS011;4604;48.616;9.548;2023-05-07T02:06:09;2.75;;;2.50;;
9138;SDS011;4604;48.616;9.548;2023-05-07T02:08:36;3.00;;;2.70;;
9138;SDS011;4604;48.616;9.548;2023-05-07T02:11:03;2.42;;;2.22;;
9138;SDS011;4604;48.616;9.548;2023-05-07T02:13:31;6.25;;;3.10;;
9138;SDS011;4604;48.616;9.548;2023-05-07T02:16:01;6.70;;;3.20;;
9138;SDS011;4604;48.616;9.548;2023-05-07T02:18:28;5.45;;;2.90;;
9138;SDS011;4604;48.616;9.548;2023-05-07T02:20:55;3.13;;;2.83;;
9138;SDS011;4604;48.616;9.548;2023-05-07T02:23:21;3.45;;;2.97;;
9138;SDS011;4604;48.616;9.548;2023-05-07T02:25:49;2.97;;;2.70;;
9138;SDS011;4604;48.616;9.548;2023-05-07T02:28:16;2.95;;;2.67;;
9138;SDS011;4604;48.616;9.548;2023-05-07T02:30:42;3.72;;;3.00;;
9138;SDS011;4604;48.616;9.548;2023-05-07T02:33:10;7.07;;;3.10;;
9138;SDS011;4604;48.616;9.548;2023-05-07T02:35:37;3.83;;;2.80;;
9138;SDS011;4604;48.616;9.548;2023-05-07T02:38:04;9.70;;;3.00;;
9138;SDS011;4604;48.616;9.548;2023-05-07T02:40:30;3.50;;;3.20;;
9138;SDS011;4604;48.616;9.548;2023-05-07T02:42:59;3.35;;;2.90;;
9138;SDS011;4604;48.616;9.548;2023-05-07T02:45:26;3.75;;;3.35;;
9138;SDS011;4604;48.616;9.548;2023-05-07T02:47:53;4.50;;;3.15;;
9138;SDS011;4604;48.616;9.548;2023-05-07T02:50:21;3.70;;;2.92;;
9138;SDS011;4604;48.616;9.548;2023-05-07T02:52:48;3.92;;;3.20;;
9138;SDS011;4604;48.616;9.548;2023-05-07T02:55:15;3.35;;;2.90;;
9138;SDS011;4604;48.616;9.548;2023-05-07T02:57:41;4.70;;;3.08;;
9138;SDS011;4604;48.616;9.548;2023-05-07T03:00:12;3.63;;;2.92;;
9138;SDS011;4604;48.616;9.548;2023-05-07T03:02:39;7.03;;;3.25;;
9138;SDS011;4604;48.616;9.548;2023-05-07T03:05:06;4.43;;;3.42;;
9138;SDS011;4604;48.616;9.548;2023-05-07T03:07:34;4.40;;;3.30;;
9138;SDS011;4604;48.616;9.548;2023-05-07T03:10:01;5.25;;;3.95;;
9138;SDS011;4604;48.616;9.548;2023-05-07T03:12:28;7.93;;;5.43;;
9138;SDS011;4604;48.616;9.548;2023-05-07T03:14:54;5.25;;;4.55;;
9138;SDS011;4604;48.616;9.548;2023-05-07T03:17:21;4.82;;;3.45;;
9138;SDS011;4604;48.616;9.548;2023-05-07T03:19:48;6.63;;;4.75;;
9138;SDS011;4604;48.616;9.548;2023-05-07T03:22:15;7.47;;;5.30;;
9138;SDS011;4604;48.616;9.548;2023-05-07T03:24:43;6.90;;;4.63;;
9138;SDS011;4604;48.616;9.548;2023-05-07T03:27:10;4.25;;;3.63;;
9138;SDS011;4604;48.616;9.548;2023-05-07T03:29:37;4.22;;;3.80;;
9138;SDS011;4604;48.616;9.548;2023-05-07T03:32:03;4.25;;;3.72;;
9138;SDS011;4604;48.616;9.548;2023-05-07T03:34:30;4.57;;;3.53;;
9138;SDS011;4604;48.616;9.548;2023-05-07T03:36:57;4.00;;;3.40;;
9138;SDS011;4604;48.616;9.548;2023-05-07T03:39:24;4.90;;;4.10;;
9138;SDS011;4604;48.616;9.548;2023-05-07T03:41:52;5.40;;;4.28;;
9138;SDS011;4604;48.616;9.548;2023-05-07T03:44:19;5.90;;;4.32;;
9138;SDS011;4604;48.616;9.548;2023-05-07T03:46:46;5.15;;;4.50;;
9138;SDS011;4604;48.616;9.548;2023-05-07T03:49:12;4.88;;;4.20;;
9138;SDS011;4604;48.616;9.548;2023-05-07T03:51:39;6.20;;;4.55;;
9138;SDS011;4604;48.616;9.548;2023-05-07T03:54:05;7.28;;;3.90;;
9138;SDS011;4604;48.616;9.548;2023-05-07T03:56:32;6.63;;;3.88;;
9138;SDS011;4604;48.616;9.548;2023-05-07T03:59:00;4.90;;;4.40;;
9138;SDS011;4604;48.616;9.548;2023-05-07T04:01:27;7.15;;;3.78;;
9138;SDS011;4604;48.616;9.548;2023-05-07T04:03:55;7.47;;;4.70;;
9138;SDS011;4604;48.616;9.548;2023-05-07T04:06:21;5.43;;;4.20;;
9138;SDS011;4604;48.616;9.548;2023-05-07T04:08:48;5.77;;;4.13;;
9138;SDS011;4604;48.616;9.548;2023-05-07T04:11:15;7.20;;;4.63;;
9138;SDS011;4604;48.616;9.548;2023-05-07T04:13:41;6.05;;;4.18;;
9138;SDS011;4604;48.616;9.548;2023-05-07T04:16:09;7.78;;;3.80;;
9138;SDS011;4604;48.616;9.548;2023-05-07T04:18:36;5.53;;;4.13;;
9138;SDS011;4604;48.616;9.548;2023-05-07T04:21:03;4.50;;;4.10;;
9138;SDS011;4604;48.616;9.548;2023-05-07T04:23:29;4.70;;;4.22;;
9138;SDS011;4604;48.616;9.548;2023-05-07T04:25:56;5.88;;;5.13;;
9138;SDS011;4604;48.616;9.548;2023-05-07T04:28:23;4.07;;;3.55;;
9138;SDS011;4604;48.616;9.548;2023-05-07T04:30:50;8.30;;;4.65;;
9138;SDS011;4604;48.616;9.548;2023-05-07T04:33:18;4.43;;;4.03;;
9138;SDS011;4604;48.616;9.548;2023-05-07T04:35:45;7.00;;;4.60;;
9138;SDS011;4604;48.616;9.548;2023-05-07T04:38:12;6.93;;;4.88;;
9138;SDS011;4604;48.616;9.548;2023-05-07T04:40:39;4.57;;;4.00;;
9138;SDS011;4604;48.616;9.548;2023-05-07T04:43:06;7.15;;;4.80;;
9138;SDS011;4604;48.616;9.548;2023-05-07T04:45:34;5.97;;;4.07;;
9138;SDS011;4604;48.616;9.548;2023-05-07T04:48:00;8.35;;;5.30;;
9138;SDS011;4604;48.616;9.548;2023-05-07T04:50:28;4.65;;;3.92;;
9138;SDS011;4604;48.616;9.548;2023-05-07T04:52:55;6.15;;;4.70;;
9138;SDS011;4604;48.616;9.548;2023-05-07T04:55:22;5.85;;;4.80;;
9138;SDS011;4604;48.616;9.548;2023-05-07T04:57:49;7.00;;;4.18;;
9138;SDS011;4604;48.616;9.548;2023-05-07T05:00:15;9.18;;;4.93;;
9138;SDS011;4604;48.616;9.548;2023-05-07T05:02:44;6.32;;;4.60;;
9138;SDS011;4604;48.616;9.548;2023-05-07T05:05:11;4.93;;;4.32;;
9138;SDS011;4604;48.616;9.548;2023-05-07T05:07:39;6.75;;;4.25;;
9138;SDS011;4604;48.616;9.548;2023-05-07T05:10:06;5.57;;;4.45;;
9138;SDS011;4604;48.616;9.548;2023-05-07T05:12:34;4.50;;;3.85;;
9138;SDS011;4604;48.616;9.548;2023-05-07T05:15:01;8.13;;;4.47;;
9138;SDS011;4604;48.616;9.548;2023-05-07T05:17:27;5.72;;;4.10;;
9138;SDS011;4604;48.616;9.548;2023-05-07T05:19:54;16.50;;;7.10;;
9138;SDS011;4604;48.616;9.548;2023-05-07T05:22:21;8.70;;;6.95;;
9138;SDS011;4604;48.616;9.548;2023-05-07T05:24:49;9.45;;;5.63;;
9138;SDS011;4604;48.616;9.548;2023-05-07T05:27:16;8.52;;;6.13;;
9138;SDS011;4604;48.616;9.548;2023-05-07T05:29:42;5.68;;;4.68;;
9138;SDS011;4604;48.616;9.548;2023-05-07T05:32:09;6.70;;;5.30;;
9138;SDS011;4604;48.616;9.548;2023-05-07T05:34:36;7.82;;;4.97;;
9138;SDS011;4604;48.616;9.548;2023-05-07T05:37:02;5.43;;;4.70;;
9138;SDS011;4604;48.616;9.548;2023-05-07T05:39:29;6.35;;;5.57;;
9138;SDS011;4604;48.616;9.548;2023-05-07T05:41:57;7.35;;;5.57;;
9138;SDS011;4604;48.616;9.548;2023-05-07T05:44:24;8.43;;;4.93;;
9138;SDS011;4604;48.616;9.548;2023-05-07T05:46:51;6.28;;;5.13;;
9138;SDS011;4604;48.616;9.548;2023-05-07T05:49:20;6.53;;;4.72;;
9138;SDS011;4604;48.616;9.548;2023-05-07T05:51:46;6.15;;;5.05;;
9138;SDS011;4604;48.616;9.548;2023-05-07T05:54:13;8.90;;;6.00;;
9138;SDS011;4604;48.616;9.548;2023-05-07T05:56:41;6.20;;;5.10;;
9138;SDS011;4604;48.616;9.548;2023-05-07T05:59:10;9.85;;;6.60;;
9138;SDS011;4604;48.616;9.548;2023-05-07T06:01:36;9.60;;;6.97;;
9138;SDS011;4604;48.616;9.548;2023-05-07T06:04:03;10.27;;;8.07;;
9138;SDS011;4604;48.616;9.548;2023-05-07T06:06:30;10.57;;;7.38;;
9138;SDS011;4604;48.616;9.548;2023-05-07T06:08:57;7.00;;;5.60;;
9138;SDS011;4604;48.616;9.548;2023-05-07T06:11:23;4.53;;;4.13;;
9138;SDS011;4604;48.616;9.548;2023-05-07T06:13:50;4.53;;;3.85;;
9138;SDS011;4604;48.616;9.548;2023-05-07T06:16:18;4.15;;;3.50;;
9138;SDS011;4604;48.616;9.548;2023-05-07T06:18:45;4.53;;;3.65;;
9138;SDS011;4604;48.616;9.548;2023-05-07T06:21:13;4.05;;;3.63;;
9138;SDS011;4604;48.616;9.548;2023-05-07T06:23:39;4.47;;;3.88;;
9138;SDS011;4604;48.616;9.548;2023-05-07T06:26:06;5.45;;;4.80;;
9138;SDS011;4604;48.616;9.548;2023-05-07T06:28:33;4.25;;;3.85;;
9138;SDS011;4604;48.616;9.548;2023-05-07T06:31:10;7.05;;;5.00;;
9138;SDS011;4604;48.616;9.548;2023-05-07T06:33:39;5.47;;;4.47;;
9138;SDS011;4604;48.616;9.548;2023-05-07T06:36:06;5.05;;;4.20;;
9138;SDS011;4604;48.616;9.548;2023-05-07T06:38:33;9.75;;;4.88;;
9138;SDS011;4604;48.616;9.548;2023-05-07T06:40:59;9.32;;;4.50;;
9138;SDS011;4604;48.616;9.548;2023-05-07T06:43:26;4.78;;;4.28;;
9138;SDS011;4604;48.616;9.548;2023-05-07T06:45:52;5.40;;;4.90;;
9138;SDS011;4604;48.616;9.548;2023-05-07T06:48:19;7.00;;;3.70;;
9138;SDS011;4604;48.616;9.548;2023-05-07T06:50:47;4.40;;;3.78;;
9138;SDS011;4604;48.616;9.548;2023-05-07T06:53:14;4.88;;;4.00;;
9138;SDS011;4604;48.616;9.548;2023-05-07T06:55:41;6.03;;;4.53;;
9138;SDS011;4604;48.616;9.548;2023-05-07T06:58:07;8.48;;;3.38;;
9138;SDS011;4604;48.616;9.548;2023-05-07T07:00:34;5.72;;;4.00;;
9138;SDS011;4604;48.616;9.548;2023-05-07T07:03:01;4.85;;;3.00;;
9138;SDS011;4604;48.616;9.548;2023-05-07T07:05:27;4.25;;;3.60;;
9138;SDS011;4604;48.616;9.548;2023-05-07T07:07:55;5.57;;;3.97;;
9138;SDS011;4604;48.616;9.548;2023-05-07T07:10:22;5.30;;;3.53;;
9138;SDS011;4604;48.616;9.548;2023-05-07T07:12:49;7.45;;;3.83;;
9138;SDS011;4604;48.616;9.548;2023-05-07T07:15:17;4.88;;;3.80;;
9138;SDS011;4604;48.616;9.548;2023-05-07T07:17:45;4.57;;;4.05;;
9138;SDS011;4604;48.616;9.548;2023-05-07T07:20:12;5.43;;;3.92;;
9138;SDS011;4604;48.616;9.548;2023-05-07T07:22:39;4.72;;;3.72;;
9138;SDS011;4604;48.616;9.548;2023-05-07T07:25:07;7.53;;;4.50;;
9138;SDS011;4604;48.616;9.548;2023-05-07T07:27:36;3.65;;;3.35;;
9138;SDS011;4604;48.616;9.548;2023-05-07T07:30:03;6.82;;;4.28;;
9138;SDS011;4604;48.616;9.548;2023-05-07T07:32:30;6.18;;;3.55;;
9138;SDS011;4604;48.616;9.548;2023-05-07T07:34:57;4.65;;;3.67;;
9138;SDS011;4604;48.616;9.548;2023-05-07T07:37:24;4.80;;;4.00;;
9138;SDS011;4604;48.616;9.548;2023-05-07T07:39:50;3.67;;;3.38;;
9138;SDS011;4604;48.616;9.548;2023-05-07T07:42:18;6.40;;;3.95;;
9138;SDS011;4604;48.616;9.548;2023-05-07T07:44:45;6.43;;;4.03;;
9138;SDS011;4604;48.616;9.548;2023-05-07T07:47:11;3.45;;;3.15;;
9138;SDS011;4604;48.616;9.548;2023-05-07T07:49:38;3.50;;;3.20;;
9138;SDS011;4604;48.616;9.548;2023-05-07T07:52:05;6.97;;;3.88;;
9138;SDS011;4604;48.616;9.548;2023-05-07T07:54:32;3.75;;;3.33;;
9138;SDS011;4604;48.616;9.548;2023-05-07T07:56:58;3.78;;;3.38;;
9138;SDS011;4604;48.616;9.548;2023-05-07T07:59:27;6.57;;;3.75;;
9138;SDS011;4604;48.616;9.548;2023-05-07T08:01:54;3.67;;;3.33;;
9138;SDS011;4604;48.616;9.548;2023-05-07T08:04:22;3.97;;;3.58;;
9138;SDS011;4604;48.616;9.548;2023-05-07T08:06:49;5.13;;;3.25;;
9138;SDS011;4604;48.616;9.548;2023-05-07T08:09:15;4.15;;;3.60;;
9138;SDS011;4604;48.616;9.548;2023-05-07T08:11:42;4.20;;;3.45;;
9138;SDS011;4604;48.616;9.548;2023-05-07T08:14:09;6.40;;;3.60;;
9138;SDS011;4604;48.616;9.548;2023-05-07T08:16:37;3.38;;;3.03;;
9138;SDS011;4604;48.616;9.548;2023-05-07T08:19:03;6.00;;;3.83;;
9138;SDS011;4604;48.616;9.548;2023-05-07T08:21:30;4.03;;;2.83;;
9138;SDS011;4604;48.616;9.548;2023-05-07T08:23:57;3.20;;;2.90;;
9138;SDS011;4604;48.616;9.548;2023-05-07T08:26:23;4.90;;;3.03;;
9138;SDS011;4604;48.616;9.548;2023-05-07T08:28:50;4.50;;;2.60;;
9138;SDS011;4604;48.616;9.548;2023-05-07T08:31:17;3.08;;;2.78;;
9138;SDS011;4604;48.616;9.548;2023-05-07T08:33:44;3.25;;;2.78;;
9138;SDS011;4604;48.616;9.548;2023-05-07T08:36:11;5.90;;;2.80;;
9138;SDS011;4604;48.616;9.548;2023-05-07T08:38:38;3.30;;;2.50;;
9138;SDS011;4604;48.616;9.548;2023-05-07T08:41:05;3.10;;;2.80;;
9138;SDS011;4604;48.616;9.548;2023-05-07T08:43:32;2.78;;;2.58;;
9138;SDS011;4604;48.616;9.548;2023-05-07T08:46:02;3.20;;;2.90;;
9138;SDS011;4604;48.616;9.548;2023-05-07T08:48:30;2.55;;;2.35;;
9138;SDS011;4604;48.616;9.548;2023-05-07T08:51:00;3.03;;;2.50;;
9138;SDS011;4604;48.616;9.548;2023-05-07T08:53:27;3.03;;;2.60;;
9138;SDS011;4604;48.616;9.548;2023-05-07T08:55:54;3.70;;;2.75;;
9138;SDS011;4604;48.616;9.548;2023-05-07T08:58:21;4.50;;;2.60;;
9138;SDS011;4604;48.616;9.548;2023-05-07T09:00:48;2.67;;;2.47;;
9138;SDS011;4604;48.616;9.548;2023-05-07T09:03:14;3.20;;;2.90;;
9138;SDS011;4604;48.616;9.548;2023-05-07T09:05:41;3.40;;;3.10;;
9138;SDS011;4604;48.616;9.548;2023-05-07T09:08:14;4.15;;;2.70;;
9138;SDS011;4604;48.616;9.548;2023-05-07T09:10:41;3.50;;;2.53;;
9138;SDS011;4604;48.616;9.548;2023-05-07T09:13:07;2.88;;;2.40;;
9138;SDS011;4604;48.616;9.548;2023-05-07T09:15:35;2.53;;;2.33;;
9138;SDS011;4604;48.616;9.548;2023-05-07T09:18:02;3.05;;;2.13;;
9138;SDS011;4604;48.616;9.548;2023-05-07T09:20:30;2.92;;;2.40;;
9138;SDS011;4604;48.616;9.548;2023-05-07T09:22:57;3.20;;;2.60;;
9138;SDS011;4604;48.616;9.548;2023-05-07T09:25:28;3.75;;;2.40;;
9138;SDS011;4604;48.616;9.548;2023-05-07T09:27:56;3.47;;;2.30;;
9138;SDS011;4604;48.616;9.548;2023-05-07T09:30:23;2.47;;;2.28;;
9138;SDS011;4604;48.616;9.548;2023-05-07T09:32:54;2.70;;;2.50;;
9138;SDS011;4604;48.616;9.548;2023-05-07T09:35:20;4.85;;;2.55;;
9138;SDS011;4604;48.616;9.548;2023-05-07T09:37:49;4.07;;;2.40;;
9138;SDS011;4604;48.616;9.548;2023-05-07T09:40:22;3.55;;;2.78;;
9138;SDS011;4604;48.616;9.548;2023-05-07T09:42:51;4.22;;;2.40;;
9138;SDS011;4604;48.616;9.548;2023-05-07T09:45:21;2.72;;;2.53;;
9138;SDS011;4604;48.616;9.548;2023-05-07T09:47:48;2.60;;;2.40;;
9138;SDS011;4604;48.616;9.548;2023-05-07T09:50:19;2.70;;;2.47;;
9138;SDS011;4604;48.616;9.548;2023-05-07T09:52:52;2.58;;;2.38;;
9138;SDS011;4604;48.616;9.548;2023-05-07T09:55:19;2.45;;;2.25;;
9138;SDS011;4604;48.616;9.548;2023-05-07T09:57:47;2.63;;;2.42;;
9138;SDS011;4604;48.616;9.548;2023-05-07T10:00:17;3.35;;;2.30;;
9138;SDS011;4604;48.616;9.548;2023-05-07T10:02:46;3.42;;;2.42;;
9138;SDS011;4604;48.616;9.548;2023-05-07T10:05:14;2.50;;;2.30;;
9138;SDS011;4604;48.616;9.548;2023-05-07T10:07:42;3.33;;;2.42;;
9138;SDS011;4604;48.616;9.548;2023-05-07T10:10:09;2.50;;;2.28;;
9138;SDS011;4604;48.616;9.548;2023-05-07T10:12:37;2.83;;;2.63;;
9138;SDS011;4604;48.616;9.548;2023-05-07T10:15:06;4.45;;;2.42;;
9138;SDS011;4604;48.616;9.548;2023-05-07T10:17:35;3.47;;;2.72;;
9138;SDS011;4604;48.616;9.548;2023-05-07T10:20:03;3.17;;;2.65;;
9138;SDS011;4604;48.616;9.548;2023-05-07T10:22:30;2.58;;;2.38;;
9138;SDS011;4604;48.616;9.548;2023-05-07T10:25:01;3.03;;;2.65;;
9138;SDS011;4604;48.616;9.548;2023-05-07T10:27:32;4.45;;;2.53;;
9138;SDS011;4604;48.616;9.548;2023-05-07T10:30:00;4.32;;;2.38;;
9138;SDS011;4604;48.616;9.548;2023-05-07T10:32:38;2.50;;;2.30;;
9138;SDS011;4604;48.616;9.548;2023-05-07T10:35:09;2.90;;;2.40;;
9138;SDS011;4604;48.616;9.548;2023-05-07T10:37:40;2.33;;;2.10;;
9138;SDS011;4604;48.616;9.548;2023-05-07T10:40:08;2.30;;;2.10;;
9138;SDS011;4604;48.616;9.548;2023-05-07T10:42:36;3.55;;;2.50;;
9138;SDS011;4604;48.616;9.548;2023-05-07T10:45:12;2.58;;;2.20;;
9138;SDS011;4604;48.616;9.548;2023-05-07T10:50:35;5.22;;;2.70;;
9138;SDS011;4604;48.616;9.548;2023-05-07T10:55:53;3.70;;;2.40;;
9138;SDS011;4604;48.616;9.548;2023-05-07T10:58:52;2.78;;;2.47;;
9138;SDS011;4604;48.616;9.548;2023-05-07T11:04:18;3.78;;;2.65;;
9138;SDS011;4604;48.616;9.548;2023-05-07T11:07:10;2.58;;;2.38;;
9138;SDS011;4604;48.616;9.548;2023-05-07T11:10:03;2.67;;;2.15;;
9138;SDS011;4604;48.616;9.548;2023-05-07T11:12:46;3.53;;;2.40;;
9138;SDS011;4604;48.616;9.548;2023-05-07T11:15:14;2.60;;;2.35;;
9138;SDS011;4604;48.616;9.548;2023-05-07T11:17:59;2.80;;;2.30;;
9138;SDS011;4604;48.616;9.548;2023-05-07T11:26:41;2.50;;;2.30;;
9138;SDS011;4604;48.616;9.548;2023-05-07T11:29:11;2.50;;;2.30;;
9138;SDS011;4604;48.616;9.548;2023-05-07T11:31:38;2.70;;;2.50;;
9138;SDS011;4604;48.616;9.548;2023-05-07T11:34:05;5.95;;;2.72;;
9138;SDS011;4604;48.616;9.548;2023-05-07T11:36:35;3.90;;;2.55;;
9138;SDS011;4604;48.616;9.548;2023-05-07T11:39:19;2.67;;;2.45;;
9138;SDS011;4604;48.616;9.548;2023-05-07T11:41:49;2.40;;;2.20;;
9138;SDS011;4604;48.616;9.548;2023-05-07T11:44:16;2.63;;;2.35;;
9138;SDS011;4604;48.616;9.548;2023-05-07T11:46:42;2.92;;;2.60;;
9138;SDS011;4604;48.616;9.548;2023-05-07T11:49:10;3.45;;;2.40;;
9138;SDS011;4604;48.616;9.548;2023-05-07T11:51:38;4.90;;;2.58;;
9138;SDS011;4604;48.616;9.548;2023-05-07T11:54:06;4.45;;;2.67;;
9138;SDS011;4604;48.616;9.548;2023-05-07T11:56:33;3.33;;;2.42;;
9138;SDS011;4604;48.616;9.548;2023-05-07T11:59:01;2.72;;;2.53;;
9138;SDS011;4604;48.616;9.548;2023-05-07T12:01:28;3.75;;;2.42;;
9138;SDS011;4604;48.616;9.548;2023-05-07T12:03:54;3.22;;;2.85;;
9138;SDS011;4604;48.616;9.548;2023-05-07T12:06:21;3.17;;;2.35;;
9138;SDS011;4604;48.616;9.548;2023-05-07T12:08:49;2.70;;;2.50;;
9138;SDS011;4604;48.616;9.548;2023-05-07T12:11:18;2.53;;;2.33;;
9138;SDS011;4604;48.616;9.548;2023-05-07T12:13:48;3.67;;;2.50;;
9138;SDS011;4604;48.616;9.548;2023-05-07T12:16:15;2.90;;;2.60;;
9138;SDS011;4604;48.616;9.548;2023-05-07T12:18:42;10.35;;;3.38;;
9138;SDS011;4604;48.616;9.548;2023-05-07T12:21:10;3.90;;;2.95;;
9138;SDS011;4604;48.616;9.548;2023-05-07T12:23:37;6.72;;;3.10;;
9138;SDS011;4604;48.616;9.548;2023-05-07T12:26:05;6.82;;;3.30;;
9138;SDS011;4604;48.616;9.548;2023-05-07T12:28:35;9.90;;;3.25;;
9138;SDS011;4604;48.616;9.548;2023-05-07T12:31:03;9.73;;;3.70;;
9138;SDS011;4604;48.616;9.548;2023-05-07T12:33:31;6.22;;;3.00;;
9138;SDS011;4604;48.616;9.548;2023-05-07T12:36:00;4.00;;;3.60;;
9138;SDS011;4604;48.616;9.548;2023-05-07T12:38:33;6.20;;;3.72;;
9138;SDS011;4604;48.616;9.548;2023-05-07T12:41:01;4.47;;;3.40;;
9138;SDS011;4604;48.616;9.548;2023-05-07T12:43:30;5.22;;;3.90;;
9138;SDS011;4604;48.616;9.548;2023-05-07T12:45:57;5.93;;;3.80;;
9138;SDS011;4604;48.616;9.548;2023-05-07T12:48:26;4.90;;;3.83;;
9138;SDS011;4604;48.616;9.548;2023-05-07T12:50:54;7.25;;;4.15;;
9138;SDS011;4604;48.616;9.548;2023-05-07T12:53:23;5.20;;;3.70;;
9138;SDS011;4604;48.616;9.548;2023-05-07T12:55:51;5.03;;;4.18;;
9138;SDS011;4604;48.616;9.548;2023-05-07T12:58:19;6.45;;;3.90;;
9138;SDS011;4604;48.616;9.548;2023-05-07T13:00:48;7.93;;;3.90;;
9138;SDS011;4604;48.616;9.548;2023-05-07T13:03:22;17.73;;;4.05;;
9138;SDS011;4604;48.616;9.548;2023-05-07T13:05:50;4.55;;;3.90;;
9138;SDS011;4604;48.616;9.548;2023-05-07T13:08:23;4.07;;;3.65;;
9138;SDS011;4604;48.616;9.548;2023-05-07T13:10:50;5.25;;;3.78;;
9138;SDS011;4604;48.616;9.548;2023-05-07T13:13:17;5.55;;;3.90;;
9138;SDS011;4604;48.616;9.548;2023-05-07T13:15:44;7.20;;;3.65;;
9138;SDS011;4604;48.616;9.548;2023-05-07T13:18:12;4.35;;;3.47;;
9138;SDS011;4604;48.616;9.548;2023-05-07T13:20:39;5.30;;;3.95;;
9138;SDS011;4604;48.616;9.548;2023-05-07T13:23:05;5.80;;;4.53;;
9138;SDS011;4604;48.616;9.548;2023-05-07T13:25:32;4.85;;;3.80;;
9138;SDS011;4604;48.616;9.548;2023-05-07T13:27:59;8.02;;;4.53;;
9138;SDS011;4604;48.616;9.548;2023-05-07T13:30:25;5.47;;;3.95;;
9138;SDS011;4604;48.616;9.548;2023-05-07T13:32:53;4.15;;;3.75;;
9138;SDS011;4604;48.616;9.548;2023-05-07T13:35:22;5.28;;;4.78;;
9138;SDS011;4604;48.616;9.548;2023-05-07T13:37:49;5.15;;;4.30;;
9138;SDS011;4604;48.616;9.548;2023-05-07T13:40:17;5.20;;;4.35;;
9138;SDS011;4604;48.616;9.548;2023-05-07T13:42:44;4.70;;;4.20;;
9138;SDS011;4604;48.616;9.548;2023-05-07T13:45:10;5.00;;;4.38;;
9138;SDS011;4604;48.616;9.548;2023-05-07T13:47:39;8.23;;;5.15;;
9138;SDS011;4604;48.616;9.548;2023-05-07T13:50:06;6.30;;;4.45;;
9138;SDS011;4604;48.616;9.548;2023-05-07T13:52:35;3.85;;;3.55;;
9138;SDS011;4604;48.616;9.548;2023-05-07T13:55:04;3.80;;;3.40;;
9138;SDS011;4604;48.616;9.548;2023-05-07T13:57:32;10.00;;;3.97;;
9138;SDS011;4604;48.616;9.548;2023-05-07T13:59:58;3.92;;;3.40;;
9138;SDS011;4604;48.616;9.548;2023-05-07T14:02:25;3.53;;;3.22;;
9138;SDS011;4604;48.616;9.548;2023-05-07T14:04:52;6.13;;;3.83;;
9138;SDS011;4604;48.616;9.548;2023-05-07T14:07:18;5.88;;;3.03;;
9138;SDS011;4604;48.616;9.548;2023-05-07T14:09:46;5.15;;;2.70;;
9138;SDS011;4604;48.616;9.548;2023-05-07T14:12:13;3.08;;;2.70;;
9138;SDS011;4604;48.616;9.548;2023-05-07T14:14:39;4.47;;;2.80;;
9138;SDS011;4604;48.616;9.548;2023-05-07T14:17:06;2.95;;;2.65;;
9138;SDS011;4604;48.616;9.548;2023-05-07T14:19:33;2.70;;;2.50;;
9138;SDS011;4604;48.616;9.548;2023-05-07T14:22:00;5.00;;;2.40;;
9138;SDS011;4604;48.616;9.548;2023-05-07T14:24:27;3.17;;;2.88;;
9138;SDS011;4604;48.616;9.548;2023-05-07T14:26:55;2.63;;;2.42;;
9138;SDS011;4604;48.616;9.548;2023-05-07T14:29:22;2.72;;;2.53;;
9138;SDS011;4604;48.616;9.548;2023-05-07T14:31:48;3.90;;;2.70;;
9138;SDS011;4604;48.616;9.548;2023-05-07T14:34:15;5.07;;;2.95;;
9138;SDS011;4604;48.616;9.548;2023-05-07T14:36:41;5.50;;;2.50;;
9138;SDS011;4604;48.616;9.548;2023-05-07T14:39:09;5.13;;;3.08;;
9138;SDS011;4604;48.616;9.548;2023-05-07T14:41:35;6.22;;;3.00;;
9138;SDS011;4604;48.616;9.548;2023-05-07T14:44:03;4.05;;;2.88;;
9138;SDS011;4604;48.616;9.548;2023-05-07T14:46:30;3.33;;;2.90;;
9138;SDS011;4604;48.616;9.548;2023-05-07T14:48:57;4.38;;;2.85;;
9138;SDS011;4604;48.616;9.548;2023-05-07T14:51:23;3.95;;;2.85;;
9138;SDS011;4604;48.616;9.548;2023-05-07T14:53:50;3.55;;;2.78;;
9138;SDS011;4604;48.616;9.548;2023-05-07T14:56:17;3.72;;;2.80;;
9138;SDS011;4604;48.616;9.548;2023-05-07T14:58:45;3.17;;;2.85;;
9138;SDS011;4604;48.616;9.548;2023-05-07T15:01:14;4.15;;;2.70;;
9138;SDS011;4604;48.616;9.548;2023-05-07T15:03:41;4.65;;;2.67;;
9138;SDS011;4604;48.616;9.548;2023-05-07T15:06:08;5.43;;;2.90;;
9138;SDS011;4604;48.616;9.548;2023-05-07T15:08:34;4.50;;;2.80;;
9138;SDS011;4604;48.616;9.548;2023-05-07T15:11:01;5.07;;;2.70;;
9138;SDS011;4604;48.616;9.548;2023-05-07T15:13:28;6.22;;;3.03;;
9138;SDS011;4604;48.616;9.548;2023-05-07T15:15:54;3.90;;;3.17;;
9138;SDS011;4604;48.616;9.548;2023-05-07T15:18:23;5.75;;;3.72;;
9138;SDS011;4604;48.616;9.548;2023-05-07T15:20:49;7.05;;;4.20;;
9138;SDS011;4604;48.616;9.548;2023-05-07T15:23:19;6.40;;;4.50;;
9138;SDS011;4604;48.616;9.548;2023-05-07T15:25:46;5.10;;;3.63;;
9138;SDS011;4604;48.616;9.548;2023-05-07T15:28:12;4.85;;;2.97;;
9138;SDS011;4604;48.616;9.548;2023-05-07T15:30:39;3.25;;;2.90;;
9138;SDS011;4604;48.616;9.548;2023-05-07T15:33:06;4.60;;;2.90;;